首页
METAR-TAF:

METAR-TAF

机场 :

倫敦盧頓機場

卢顿, 英格兰

纬度: 51-52N, 经度: 000-22W, 海拔: 160米

当前天气观测

该预报发布于14分钟前的08:50 UTC
风速7节,风向
温度 11°C
湿度 87%
气压 1006 hPa
能见度10公里或以上

METAR: EGGW 170850Z AUTO 17007KT 9999 NCD 11/09 Q1006

时间: 10:04 (09:04 UTC)

预报

该预报发布于4小时和10分钟前的04:54 UTC
预报有效从17日的 06点(UTC)到 18日的 06点(UTC)
风速8节,风向
能见度10公里或以上
少量云层高于2500英尺
几率 30%
从 17日的 06点(UTC)到 17日的 08点(UTC)
能見度: 3000
轻雾
短暂存在
从 17日的 10点(UTC)到 18日的 06点(UTC)
能見度: 7000
阵雨
几率 30% :
短暂存在
从 17日的 11点(UTC)到 17日的 19点(UTC)
风速15节,风向南转西南,有时为25节阵风
能見度: 4000
多云层高于1200英尺
大阵雨
几率 30% :
短暂存在
从 17日的 23点(UTC)到 18日的 06点(UTC)
风速15节,风向南转西南,有时为25节阵风
能見度: 3000
多云层高于800英尺, 积雨云.
大阵雨

TAF: EGGW 170454Z 1706/1806 19008KT 9999 FEW025 PROB30 1706/1708 3000 BR TEMPO 1710/1806 7000 SHRA PROB30 TEMPO 1711/1719 20015G25KT 4000 +SHRA BKN012 PROB30 TEMPO 1723/1806 21015G25KT 3000 +SHRA BKN008CB

超过4000个机场的气象观测和天气预报(METAR&TAF报告)。

可查询的气象台以黄色和红色小点在地图上表示。

将鼠标移到小点上方,可查看气象台名称。

然后点击查看天气观测和预报。

如需切换地图:点击带黑十字的绿色按钮放大地图;点击带横线的绿色按钮缩小地图;或者点击绿色箭头查看邻近地区的地图。


METAR-TAF: